Time;durP1;ratioP1;P1;durP2;ratioP2;P2;SDS_P1;SDS_P2;PMS_P1;PMS_P2;Temp;Humidity;BMP_temperature;BMP_pressure;BME280_temperature;BME280_humidity;BME280_pressure;Samples;Min_cycle;Max_cycle;Signal;HPM_P1;HPM_P2
2023/07/22 00:01:02;;;;;;;16.10;5.70;;;25.50;69.70;;;26.17;48.70;94892.69;5079047;28;20481;-72
2023/07/22 00:03:29;;;;;;;13.60;5.63;;;25.50;69.70;;;26.17;48.67;94912.38;5078757;28;20450;-72
2023/07/22 00:06:08;;;;;;;16.53;6.33;;;25.50;69.70;;;26.19;49.28;94910.25;5078609;28;20474;-62
2023/07/22 00:08:35;;;;;;;9.30;5.50;;;25.50;70.00;;;26.20;48.74;94906.50;5078396;28;20527;-63
2023/07/22 00:11:02;;;;;;;12.87;7.33;;;25.50;69.80;;;26.21;48.69;94910.00;5080964;28;20470;-62
2023/07/22 00:13:30;;;;;;;8.83;6.07;;;25.50;69.80;;;26.21;48.59;94910.84;5076518;28;20462;-73
2023/07/22 00:15:59;;;;;;;10.00;5.87;;;25.50;69.90;;;26.20;48.76;94901.13;5080115;28;20473;-73
2023/07/22 00:18:27;;;;;;;17.57;6.33;;;25.50;69.80;;;26.19;48.74;94899.47;5076313;28;20489;-72
2023/07/22 00:20:54;;;;;;;17.43;6.93;;;25.50;69.80;;;26.18;49.09;94905.09;5081837;28;20507;-63
2023/07/22 00:23:23;;;;;;;18.40;6.43;;;25.50;70.10;;;26.16;49.09;94908.03;5075734;28;20545;-62
2023/07/22 00:25:50;;;;;;;10.30;5.90;;;25.50;70.00;;;26.15;48.96;94910.97;5079861;28;20516;-61
2023/07/22 00:28:18;;;;;;;12.00;6.10;;;25.50;71.10;;;26.14;48.79;94910.16;5078145;28;20875;-60
2023/07/22 00:30:45;;;;;;;14.33;6.00;;;25.40;70.70;;;26.10;49.33;94898.19;5078242;28;20799;-70
2023/07/22 00:33:13;;;;;;;11.80;5.77;;;25.40;70.40;;;26.06;49.00;94913.22;5081361;28;20465;-71
2023/07/22 00:35:41;;;;;;;19.10;6.57;;;25.40;70.20;;;26.00;48.81;94904.19;5075895;28;20561;-58
2023/07/22 00:38:09;;;;;;;13.03;6.20;;;25.40;70.40;;;25.95;49.36;94904.06;5080166;28;20873;-61
2023/07/22 00:40:38;;;;;;;12.03;6.07;;;25.30;70.50;;;25.92;49.38;94909.91;5078149;28;20473;-68
2023/07/22 00:43:07;;;;;;;8.90;5.60;;;25.20;70.50;;;25.91;49.34;94910.94;5078868;28;21041;-64
2023/07/22 00:45:34;;;;;;;13.87;5.83;;;25.20;70.70;;;25.89;49.46;94918.47;5074077;28;20481;-71
2023/07/22 00:48:01;;;;;;;12.37;6.23;;;25.20;70.90;;;25.89;50.01;94923.84;5077153;28;20457;-61
2023/07/22 00:50:29;;;;;;;18.67;6.10;;;25.20;71.20;;;25.88;49.68;94924.91;5077085;28;20470;-59
2023/07/22 00:52:56;;;;;;;12.63;6.17;;;25.20;71.40;;;25.87;49.56;94934.88;5078539;28;20526;-67
2023/07/22 00:55:23;;;;;;;6.13;5.40;;;25.20;71.40;;;25.87;49.77;94931.31;5074964;28;20527;-67
2023/07/22 00:57:52;;;;;;;10.13;6.03;;;25.20;71.60;;;25.87;50.41;94926.78;5082141;28;20550;-71
2023/07/22 01:00:19;;;;;;;11.73;6.10;;;25.20;72.10;;;25.87;49.99;94915.16;5077368;28;20485;-60
2023/07/22 01:02:47;;;;;;;8.93;5.70;;;25.10;72.00;;;25.85;50.08;94911.88;5080638;28;20511;-60
2023/07/22 01:05:14;;;;;;;11.17;5.87;;;25.10;72.00;;;25.84;49.85;94910.25;5078773;28;20470;-71
2023/07/22 01:07:41;;;;;;;14.77;6.40;;;25.10;72.00;;;25.80;50.07;94899.13;5076979;28;20461;-61
2023/07/22 01:10:09;;;;;;;11.87;6.80;;;25.10;72.00;;;25.77;50.46;94900.41;5075463;28;20475;-70
2023/07/22 01:12:37;;;;;;;9.20;5.43;;;25.10;72.00;;;25.73;50.76;94901.94;5079506;28;20624;-60
2023/07/22 01:15:07;;;;;;;14.83;6.00;;;25.00;72.10;;;25.71;50.22;94906.72;5072227;28;20470;-72
2023/07/22 01:17:35;;;;;;;11.60;6.27;;;25.00;72.40;;;25.69;50.50;94914.22;5074123;28;20484;-61
2023/07/22 01:20:03;;;;;;;16.37;5.47;;;25.00;72.80;;;25.70;50.47;94915.88;5075267;28;20553;-72
2023/07/22 01:22:30;;;;;;;11.80;5.80;;;25.00;73.00;;;25.70;50.45;94904.25;5078229;28;20464;-60
2023/07/22 01:24:59;;;;;;;20.10;6.63;;;25.00;73.10;;;25.67;51.12;94900.19;5079000;28;20473;-61
2023/07/22 01:27:26;;;;;;;15.80;6.70;;;25.00;73.30;;;25.63;50.65;94899.00;5075703;28;20968;-60
2023/07/22 01:29:54;;;;;;;10.67;6.40;;;24.90;73.10;;;25.62;50.66;94891.16;5074792;28;20479;-62
2023/07/22 01:32:21;;;;;;;9.00;5.90;;;24.90;73.20;;;25.61;50.98;94895.72;5078528;28;20453;-71
2023/07/22 01:34:48;;;;;;;16.00;6.10;;;24.90;73.40;;;25.59;51.41;94892.44;5070424;28;20461;-60
2023/07/22 01:37:15;;;;;;;9.73;5.30;;;24.90;73.60;;;25.55;50.69;94894.78;5078244;28;20558;-71
2023/07/22 01:39:43;;;;;;;13.17;5.80;;;24.80;73.50;;;25.52;51.08;94894.44;5070775;28;21022;-72
2023/07/22 01:42:11;;;;;;;13.67;5.90;;;24.80;73.60;;;25.48;51.20;94888.66;5077796;28;20563;-60
2023/07/22 01:44:41;;;;;;;16.13;6.30;;;24.80;73.70;;;25.47;51.49;94884.34;5071374;28;20523;-60
2023/07/22 01:47:08;;;;;;;8.37;5.30;;;24.80;73.90;;;25.46;51.41;94884.59;5075020;28;20446;-71
2023/07/22 01:49:35;;;;;;;10.80;5.63;;;24.80;74.00;;;25.45;51.05;94882.94;5076698;28;20447;-61
2023/07/22 01:52:02;;;;;;;12.43;6.63;;;24.80;74.10;;;25.43;51.59;94882.34;5076354;28;20966;-61
2023/07/22 01:54:29;;;;;;;11.77;6.20;;;24.80;74.30;;;25.41;51.41;94880.72;5075723;28;20450;-71
2023/07/22 01:56:57;;;;;;;9.20;6.40;;;24.70;74.20;;;25.40;51.46;94879.06;5075619;28;20454;-72
2023/07/22 01:59:25;;;;;;;13.90;6.10;;;24.70;74.40;;;25.39;51.36;94880.13;5077315;28;20451;-61
2023/07/22 02:01:53;;;;;;;10.20;6.00;;;24.70;74.50;;;25.39;52.05;94885.50;5074641;28;20478;-61
2023/07/22 02:04:20;;;;;;;7.40;5.93;;;24.70;74.70;;;25.38;51.64;94886.56;5072673;28;21410;-72
2023/07/22 02:06:48;;;;;;;22.80;6.70;;;24.70;74.50;;;25.36;51.32;94888.66;5076065;28;20466;-71
2023/07/22 02:09:15;;;;;;;15.80;5.77;;;24.70;74.60;;;25.34;51.38;94890.75;5072052;28;20458;-61
2023/07/22 02:11:43;;;;;;;10.83;5.33;;;24.70;74.80;;;25.32;51.74;94882.09;5072525;28;20531;-62
2023/07/22 02:14:10;;;;;;;8.30;6.17;;;24.60;74.80;;;25.30;52.08;94884.22;5069311;28;20824;-61
2023/07/22 02:16:39;;;;;;;14.60;6.20;;;24.60;74.90;;;25.28;52.27;94886.25;5073496;28;20474;-72
2023/07/22 02:19:06;;;;;;;9.03;5.87;;;24.60;74.90;;;25.27;51.82;94889.19;5076083;28;20555;-70
2023/07/22 02:21:33;;;;;;;9.10;6.90;;;24.60;75.40;;;25.26;52.07;94888.38;5073999;28;20548;-61
2023/07/22 02:24:00;;;;;;;9.50;6.37;;;24.50;75.20;;;25.19;51.94;94877.72;5080541;28;20454;-70
2023/07/22 02:26:28;;;;;;;10.73;6.13;;;24.50;75.40;;;25.19;51.72;94893.88;5071801;28;20879;-60
2023/07/22 02:28:55;;;;;;;14.93;6.20;;;24.50;75.40;;;25.16;52.51;94882.72;5080957;28;20958;-71
2023/07/22 02:31:23;;;;;;;11.43;6.23;;;24.50;75.50;;;25.10;51.98;94894.41;5072751;28;20467;-59
2023/07/22 02:33:51;;;;;;;14.70;6.80;;;24.50;75.60;;;25.10;52.43;94897.09;5077954;28;20489;-71
2023/07/22 02:36:19;;;;;;;10.90;6.83;;;24.40;75.70;;;25.06;52.61;94905.63;5074458;28;21041;-71
2023/07/22 02:38:46;;;;;;;12.97;5.93;;;24.40;76.00;;;25.05;52.61;94904.03;5077651;28;21180;-71
2023/07/22 02:41:13;;;;;;;12.43;6.53;;;24.40;76.30;;;25.03;52.48;94902.59;5078209;28;20476;-73
2023/07/22 02:43:41;;;;;;;12.73;6.30;;;24.30;76.30;;;24.97;52.59;94893.59;5075877;28;20450;-70
2023/07/22 02:46:08;;;;;;;16.93;6.67;;;24.30;76.60;;;24.92;52.72;94893.44;5077827;28;20476;-70
2023/07/22 02:48:36;;;;;;;21.20;7.00;;;24.30;76.80;;;24.85;53.43;94898.09;5074615;28;20458;-70
2023/07/22 02:51:06;;;;;;;12.10;5.47;;;24.20;76.90;;;24.80;52.91;94895.25;5075546;28;21015;-71
2023/07/22 02:53:33;;;;;;;10.07;6.17;;;24.10;76.90;;;24.77;53.70;94898.41;5075531;28;20449;-61
2023/07/22 02:56:01;;;;;;;10.27;5.33;;;24.10;77.20;;;24.72;53.80;94906.34;5071574;28;20900;-73
2023/07/22 02:58:28;;;;;;;23.73;6.10;;;24.10;77.60;;;24.70;53.61;94907.38;5080968;28;20508;-60
2023/07/22 03:00:57;;;;;;;12.80;6.37;;;24.00;77.60;;;24.67;53.52;94901.66;5082158;28;20980;-59
2023/07/22 03:03:24;;;;;;;12.20;6.00;;;24.00;77.50;;;24.64;53.48;94908.28;5079018;28;21308;-72
2023/07/22 03:05:52;;;;;;;10.40;6.10;;;24.00;78.00;;;24.62;54.07;94899.66;5080307;28;20476;-69
2023/07/22 03:08:20;;;;;;;10.73;6.57;;;24.00;78.50;;;24.61;53.65;94906.06;5077340;28;20472;-60
2023/07/22 03:10:48;;;;;;;12.13;5.40;;;23.90;78.60;;;24.60;54.50;94907.13;5079501;28;20565;-71
2023/07/22 03:13:15;;;;;;;6.90;5.67;;;24.00;78.80;;;24.61;53.79;94906.06;5076013;28;20450;-60
2023/07/22 03:15:43;;;;;;;10.93;5.90;;;24.00;78.80;;;24.62;53.98;94898.84;5083527;28;20550;-71
2023/07/22 03:18:10;;;;;;;11.07;5.77;;;23.90;79.00;;;24.65;53.76;94907.25;5078158;28;20486;-62
2023/07/22 03:20:38;;;;;;;11.43;5.87;;;24.00;79.00;;;24.68;54.08;94911.38;5085822;28;20530;-70
2023/07/22 03:23:05;;;;;;;14.03;6.60;;;24.00;78.90;;;24.72;54.41;94909.84;5081009;28;20461;-71
2023/07/22 03:25:35;;;;;;;11.00;6.30;;;24.00;79.00;;;24.77;53.75;94906.47;5085116;28;20992;-71
2023/07/22 03:28:04;;;;;;;10.03;5.63;;;24.10;79.00;;;24.83;54.08;94916.34;5077086;28;20990;-60
2023/07/22 03:30:33;;;;;;;15.70;5.43;;;24.10;79.10;;;24.85;53.66;94914.25;5084043;28;20477;-71
2023/07/22 03:33:00;;;;;;;12.10;5.50;;;24.10;78.90;;;24.90;54.03;94925.16;5083385;28;20498;-71
2023/07/22 03:35:27;;;;;;;12.03;6.00;;;24.20;79.20;;;24.96;53.50;94929.63;5084572;28;20469;-71
2023/07/22 03:37:55;;;;;;;17.63;6.90;;;24.30;79.00;;;24.99;53.45;94933.72;5083294;28;20588;-61
2023/07/22 03:40:26;;;;;;;14.37;6.33;;;24.30;79.00;;;24.99;54.18;94931.84;5079665;28;20473;-60
2023/07/22 03:42:55;;;;;;;7.53;6.10;;;24.30;78.90;;;25.02;53.50;94941.34;5078319;28;20449;-61
2023/07/22 03:45:23;;;;;;;10.43;6.07;;;24.30;78.60;;;25.02;53.32;94931.38;5081102;28;21016;-61
2023/07/22 03:47:52;;;;;;;16.80;6.20;;;24.30;78.70;;;25.01;53.43;94935.13;5081162;28;20445;-72
2023/07/22 03:50:19;;;;;;;17.57;6.03;;;24.30;78.70;;;25.02;54.18;94936.78;5082879;28;20477;-61
2023/07/22 03:52:47;;;;;;;9.70;6.67;;;24.40;79.10;;;25.04;53.87;94942.75;5079461;28;20446;-72
2023/07/22 03:55:14;;;;;;;20.00;5.77;;;24.30;79.00;;;25.08;53.69;94950.34;5080382;28;20477;-60
2023/07/22 03:57:41;;;;;;;8.80;5.20;;;24.40;79.00;;;25.09;53.73;94946.63;5082910;28;20492;-73
2023/07/22 04:00:11;;;;;;;10.40;6.00;;;24.40;79.10;;;25.10;53.74;94950.94;5085929;28;20510;-61
2023/07/22 04:02:38;;;;;;;13.57;6.77;;;24.40;79.20;;;25.11;53.96;94956.09;5083616;28;20523;-62
2023/07/22 04:05:06;;;;;;;11.80;5.87;;;24.40;79.30;;;25.12;53.62;94954.25;5081246;28;21005;-60
2023/07/22 04:07:33;;;;;;;11.73;5.73;;;24.50;79.50;;;25.14;54.01;94954.81;5086160;28;20460;-61
2023/07/22 04:10:01;;;;;;;8.53;5.23;;;24.50;79.50;;;25.16;54.35;94958.09;5077885;28;20462;-72
2023/07/22 04:12:28;;;;;;;7.60;6.13;;;24.50;79.60;;;25.16;54.02;94948.16;5074968;28;20453;-59
2023/07/22 04:14:56;;;;;;;20.70;6.30;;;24.50;79.70;;;25.15;54.46;94943.81;5072871;28;20474;-71
2023/07/22 04:17:25;;;;;;;12.50;6.67;;;24.50;79.80;;;25.15;54.29;94949.22;5080177;28;20479;-62
2023/07/22 04:19:52;;;;;;;12.90;6.70;;;24.50;80.00;;;25.19;54.40;94947.72;5078118;28;21064;-73
2023/07/22 04:22:21;;;;;;;13.37;6.50;;;24.50;80.10;;;25.21;53.97;94951.00;5080466;28;20457;-73
2023/07/22 04:24:49;;;;;;;19.27;7.03;;;24.50;80.20;;;25.23;54.06;94969.59;5076493;28;20500;-72
2023/07/22 04:27:16;;;;;;;12.63;6.33;;;24.50;80.20;;;25.27;54.60;94964.56;5079266;28;20997;-72
2023/07/22 04:29:44;;;;;;;12.87;7.33;;;24.60;80.50;;;25.30;54.41;94970.38;5075169;28;20446;-72
2023/07/22 04:32:11;;;;;;;13.63;6.40;;;24.60;80.30;;;25.34;53.95;94965.34;5078172;28;20503;-63
2023/07/22 04:34:40;;;;;;;11.53;7.20;;;24.70;80.40;;;25.36;54.41;94969.44;5073951;28;20549;-74
2023/07/22 04:37:07;;;;;;;13.00;8.87;;;24.70;81.30;;;25.38;53.80;94972.72;5078356;28;20533;-72
2023/07/22 04:39:35;;;;;;;10.47;7.43;;;24.70;80.30;;;25.43;54.44;94971.22;5075150;28;20490;-72
2023/07/22 04:42:02;;;;;;;15.40;7.20;;;24.80;80.50;;;25.51;53.88;94981.66;5077365;28;20958;-72
2023/07/22 04:44:29;;;;;;;10.93;6.80;;;24.80;80.60;;;25.58;54.30;94971.63;5075208;28;20461;-74
2023/07/22 04:46:57;;;;;;;22.47;7.80;;;24.90;80.60;;;25.63;53.92;94963.66;5082076;28;20487;-72
2023/07/22 04:49:24;;;;;;;13.33;6.43;;;24.90;80.30;;;25.65;54.13;94972.31;5079568;28;20463;-73
2023/07/22 04:51:53;;;;;;;11.27;6.37;;;25.00;80.50;;;25.65;54.06;94972.31;5074287;28;20459;-72
2023/07/22 04:54:20;;;;;;;11.30;7.83;;;25.00;80.50;;;25.67;53.91;94969.38;5077661;28;20474;-60
2023/07/22 04:56:47;;;;;;;9.33;7.00;;;25.00;80.80;;;25.70;54.41;94975.16;5078834;28;20453;-69
2023/07/22 04:59:15;;;;;;;14.30;7.30;;;25.00;80.60;;;25.76;54.05;94982.31;5080636;28;20481;-70
2023/07/22 05:01:43;;;;;;;22.47;6.40;;;25.10;80.80;;;25.84;53.83;94983.00;5078462;28;20474;-60
2023/07/22 05:04:10;;;;;;;13.50;7.90;;;25.10;80.80;;;25.92;54.15;94993.44;5075581;28;20452;-61
2023/07/22 05:06:38;;;;;;;15.27;6.33;;;25.20;80.80;;;25.99;53.92;94993.38;5078994;28;20942;-71
2023/07/22 05:09:06;;;;;;;9.73;6.90;;;25.30;80.90;;;26.03;54.07;94994.56;5078089;28;20458;-71
2023/07/22 05:11:34;;;;;;;15.73;8.10;;;25.30;81.00;;;26.06;53.92;94989.50;5079715;28;20470;-60
2023/07/22 05:14:01;;;;;;;15.60;7.53;;;25.40;81.10;;;26.14;54.30;94991.03;5074562;28;20446;-59
2023/07/22 05:16:28;;;;;;;24.93;8.40;;;25.40;81.50;;;26.21;54.04;94990.91;5075401;28;20474;-60
2023/07/22 05:18:55;;;;;;;10.30;7.23;;;25.50;81.20;;;26.25;54.38;94986.69;5079720;28;20516;-69
2023/07/22 05:21:23;;;;;;;16.17;6.63;;;25.50;81.10;;;26.29;54.13;94985.16;5072630;28;20474;-67
2023/07/22 05:23:50;;;;;;;14.40;6.60;;;25.60;81.50;;;26.35;54.15;94994.19;5082610;28;20445;-60
2023/07/22 05:26:19;;;;;;;16.03;7.53;;;25.70;81.40;;;26.42;54.33;94993.00;5074322;28;20496;-59
2023/07/22 05:28:46;;;;;;;11.43;7.77;;;25.70;81.50;;;26.54;54.03;94990.28;5079014;28;20831;-68
2023/07/22 05:31:13;;;;;;;22.03;8.73;;;25.80;81.60;;;26.67;54.23;94985.72;5075124;28;20859;-65
2023/07/22 05:33:40;;;;;;;13.97;7.90;;;25.90;81.80;;;26.83;54.19;94991.22;5079678;28;20572;-60
2023/07/22 05:36:07;;;;;;;10.10;6.90;;;26.00;82.00;;;26.99;54.20;94992.31;5079243;28;20470;-61
2023/07/22 05:38:35;;;;;;;19.20;8.50;;;26.20;81.70;;;27.13;53.86;94992.06;5074039;28;20489;-68
2023/07/22 05:41:02;;;;;;;52.67;10.57;;;26.30;81.60;;;27.28;53.63;94997.75;5076783;28;20551;-60
2023/07/22 05:43:31;;;;;;;15.47;8.37;;;26.50;81.50;;;27.50;53.96;95005.19;5077896;28;20454;-70
2023/07/22 05:45:58;;;;;;;21.23;8.43;;;26.60;81.60;;;27.73;53.55;94996.09;5075877;28;20998;-73
2023/07/22 05:48:25;;;;;;;10.00;7.40;;;26.90;81.40;;;27.98;52.52;94997.63;5076775;28;20449;-73
2023/07/22 05:50:52;;;;;;;17.03;7.70;;;27.10;80.20;;;28.18;52.20;94992.56;5075302;28;20474;-62
2023/07/22 05:53:20;;;;;;;12.37;7.83;;;27.30;79.70;;;28.33;51.79;94977.59;5076063;28;20542;-68
2023/07/22 05:55:47;;;;;;;11.00;7.43;;;27.50;79.50;;;28.43;51.72;94985.88;5071915;28;20470;-70
2023/07/22 05:58:18;;;;;;;10.53;7.63;;;27.60;78.50;;;28.51;51.02;94990.84;5079545;28;20479;-73
2023/07/22 06:00:47;;;;;;;235.43;18.90;;;27.70;78.00;;;28.60;50.81;95008.34;5076026;28;20474;-60
2023/07/22 06:03:14;;;;;;;33.13;11.90;;;27.80;77.90;;;28.74;50.87;95007.97;5078266;28;20513;-61
2023/07/22 06:05:41;;;;;;;24.90;10.83;;;27.90;77.90;;;28.95;50.81;95019.88;5076370;28;20821;-64
2023/07/22 06:08:08;;;;;;;16.93;9.40;;;28.00;77.30;;;29.15;49.79;95027.41;5078105;28;20449;-64
2023/07/22 06:10:37;;;;;;;24.90;13.30;;;28.30;76.80;;;29.35;49.74;95026.88;5075964;28;20296;-69
2023/07/22 06:13:05;;;;;;;19.10;9.00;;;28.40;76.40;;;29.54;49.78;95029.22;5073860;28;20199;-68
2023/07/22 06:15:32;;;;;;;14.60;8.53;;;28.60;76.10;;;29.75;49.36;95030.25;5075355;28;20227;-68
2023/07/22 06:18:00;;;;;;;17.57;9.67;;;28.80;75.60;;;29.93;49.66;95032.63;5075565;28;20205;-66
2023/07/22 06:20:28;;;;;;;24.63;8.97;;;29.00;75.20;;;30.11;49.34;95031.41;5077462;28;20231;-61
2023/07/22 06:22:55;;;;;;;16.53;10.30;;;29.20;74.70;;;30.31;48.68;95038.88;5076017;28;20196;-62
2023/07/22 06:25:23;;;;;;;27.40;9.20;;;29.40;74.20;;;30.46;48.45;95040.09;5077089;28;20738;-59
2023/07/22 06:27:50;;;;;;;13.93;8.00;;;29.50;73.50;;;30.60;47.79;95037.75;5075686;28;20211;-61
2023/07/22 06:30:17;;;;;;;9.13;6.47;;;29.60;73.30;;;30.73;47.99;95035.38;5076229;28;20227;-61
2023/07/22 06:32:44;;;;;;;16.03;7.50;;;29.80;73.20;;;30.79;48.02;95040.88;5075807;28;20203;-64
2023/07/22 06:35:13;;;;;;;13.40;8.00;;;29.90;73.00;;;30.74;48.11;95047.88;5082478;28;20219;-63
2023/07/22 06:37:40;;;;;;;12.40;7.70;;;29.90;73.20;;;30.75;48.01;95040.56;5072242;28;20208;-65
2023/07/22 06:40:09;;;;;;;18.00;8.30;;;29.90;73.00;;;30.76;47.87;95044.91;5080114;28;20234;-64
2023/07/22 06:42:36;;;;;;;18.50;8.40;;;29.90;72.90;;;30.75;47.43;95044.09;5074511;28;20219;-61
2023/07/22 06:45:04;;;;;;;15.10;8.33;;;29.90;72.40;;;30.73;47.69;95042.72;5080245;28;20227;-61
2023/07/22 06:47:31;;;;;;;14.20;8.30;;;29.90;72.20;;;30.70;47.63;95040.53;5069487;28;20204;-60
2023/07/22 06:49:59;;;;;;;25.63;8.47;;;29.90;72.30;;;30.74;48.20;95038.94;5078667;28;20227;-64
2023/07/22 06:52:28;;;;;;;23.30;8.60;;;29.90;72.30;;;30.84;47.60;95033.53;5078366;28;20200;-61
2023/07/22 06:54:55;;;;;;;22.83;8.17;;;30.00;72.10;;;30.95;47.23;95031.69;5072456;28;20306;-61
2023/07/22 06:57:22;;;;;;;15.07;7.27;;;30.10;71.90;;;31.00;47.17;95023.63;5076622;28;20214;-62
2023/07/22 06:59:51;;;;;;;17.83;7.50;;;30.20;71.80;;;31.08;47.12;95023.09;5071626;28;20224;-61
2023/07/22 07:02:18;;;;;;;10.07;7.13;;;30.20;71.70;;;31.18;46.93;95016.06;5075147;28;20204;-62
2023/07/22 07:04:46;;;;;;;20.30;6.60;;;30.30;71.40;;;31.31;46.64;95020.19;5074231;28;20264;-64
2023/07/22 07:07:13;;;;;;;14.93;8.10;;;30.40;71.10;;;31.38;46.69;95024.28;5075204;28;20295;-60
2023/07/22 07:09:42;;;;;;;10.38;7.55;;;30.50;70.00;;;31.44;46.02;95025.94;5076424;28;20646;-61
2023/07/22 07:12:10;;;;;;;25.85;8.38;;;30.60;69.70;;;31.51;45.45;95011.25;5074085;28;20608;-61
2023/07/22 07:14:37;;;;;;;15.13;7.50;;;30.70;69.50;;;31.59;45.86;95018.94;5072785;28;20196;-62
2023/07/22 07:17:05;;;;;;;13.25;7.80;;;30.80;69.90;;;31.70;45.74;95017.88;5075342;28;20203;-65
2023/07/22 07:19:32;;;;;;;10.73;7.30;;;30.90;69.90;;;31.80;45.48;95015.13;5074666;28;20236;-65
2023/07/22 07:22:00;;;;;;;16.75;9.20;;;30.90;68.90;;;31.86;45.04;95024.13;5073970;28;20214;-64
2023/07/22 07:24:28;;;;;;;17.20;7.00;;;31.00;68.50;;;31.92;45.06;95016.81;5073871;28;20214;-67
2023/07/22 07:26:56;;;;;;;17.10;8.57;;;31.10;68.40;;;32.11;45.14;95017.09;5071702;28;20671;-66
2023/07/22 07:29:24;;;;;;;15.40;7.22;;;31.20;68.50;;;32.38;44.91;95019.53;5074037;28;20665;-58
2023/07/22 07:31:51;;;;;;;16.60;8.27;;;31.50;68.30;;;32.63;44.44;95018.69;5078695;28;20614;-60
2023/07/22 07:34:18;;;;;;;20.75;8.30;;;31.70;67.70;;;32.86;44.05;95016.47;5070671;28;20291;-59
2023/07/22 07:36:46;;;;;;;16.23;8.57;;;31.90;67.10;;;33.09;43.49;95006.84;5077978;28;20289;-59
2023/07/22 07:39:13;;;;;;;19.90;9.02;;;32.10;66.30;;;33.22;42.95;95002.75;5075327;28;20956;-61
2023/07/22 07:41:40;;;;;;;10.82;6.80;;;32.30;65.50;;;33.37;42.90;95004.53;5077347;28;20215;-61
2023/07/22 07:44:09;;;;;;;16.45;8.95;;;32.50;65.50;;;33.59;42.97;95001.44;5074837;28;20200;-62
2023/07/22 07:46:36;;;;;;;17.52;7.55;;;32.60;65.30;;;33.81;42.14;95011.97;5076798;28;20222;-61
2023/07/22 07:49:04;;;;;;;13.40;8.55;;;32.80;64.60;;;34.06;42.50;95001.94;5075508;28;20204;-64
2023/07/22 07:51:32;;;;;;;16.98;8.65;;;33.10;64.80;;;34.31;42.08;94998.22;5081021;28;20633;-59
2023/07/22 07:54:00;;;;;;;18.08;8.25;;;33.30;64.10;;;34.58;41.17;94999.56;5077648;28;20196;-59
2023/07/22 07:56:27;;;;;;;19.98;9.30;;;33.60;63.30;;;34.82;41.42;95000.44;5080340;28;20224;-59
2023/07/22 07:58:55;;;;;;;15.85;8.90;;;33.80;62.90;;;35.03;41.46;94996.66;5076617;28;20212;-59
2023/07/22 08:01:23;;;;;;;19.23;8.23;;;34.10;62.40;;;35.22;40.92;95002.97;5075386;28;20313;-63
2023/07/22 08:03:51;;;;;;;18.35;8.32;;;34.20;62.00;;;35.38;39.51;94997.34;5076347;28;20192;-59
2023/07/22 08:06:18;;;;;;;13.93;9.23;;;34.40;59.90;;;35.31;40.20;94995.78;5075339;28;20224;-62
2023/07/22 08:08:45;;;;;;;17.75;8.80;;;34.40;59.90;;;35.15;39.99;95000.63;5074661;28;20200;-62
2023/07/22 08:11:14;;;;;;;15.45;8.90;;;34.20;59.70;;;35.11;39.42;94998.75;5079169;28;20215;-62
2023/07/22 08:13:42;;;;;;;15.68;8.57;;;34.20;60.10;;;35.14;40.33;95000.91;5079124;28;20196;-62
2023/07/22 08:16:10;;;;;;;27.05;9.50;;;34.20;60.70;;;35.18;39.76;95004.66;5076355;28;20224;-61
2023/07/22 08:18:39;;;;;;;19.90;9.60;;;34.20;59.90;;;35.27;39.71;95002.94;5076765;28;20568;-61
2023/07/22 08:21:07;;;;;;;13.70;9.02;;;34.30;59.90;;;35.49;38.74;95002.38;5072919;28;20243;-60
2023/07/22 08:23:35;;;;;;;15.52;9.82;;;34.50;59.50;;;35.70;38.79;94994.69;5076139;28;20649;-60
2023/07/22 08:26:03;;;;;;;16.83;9.57;;;34.70;59.30;;;35.83;38.32;94998.63;5075578;28;20765;-62
2023/07/22 08:28:31;;;;;;;25.52;9.70;;;34.90;58.70;;;35.85;37.79;94985.47;5076189;28;20242;-61
2023/07/22 08:31:00;;;;;;;21.92;9.95;;;34.90;58.00;;;35.84;37.86;94983.03;5076948;28;20230;-63
2023/07/22 08:33:27;;;;;;;26.33;10.70;;;35.00;57.90;;;35.70;38.60;94977.47;5076057;28;20200;-61
2023/07/22 08:35:56;;;;;;;30.80;9.38;;;34.90;57.80;;;35.61;39.10;94969.09;5076625;28;20256;-60
2023/07/22 08:38:23;;;;;;;13.68;9.70;;;34.80;58.30;;;35.72;39.06;94967.81;5078955;28;21498;-61
2023/07/22 08:40:51;;;;;;;11.02;8.63;;;34.80;58.60;;;35.96;38.99;94953.25;5072323;28;20237;-60
2023/07/22 08:43:21;;;;;;;19.55;9.10;;;34.90;58.50;;;36.24;38.38;94959.63;5075583;28;20215;-62
2023/07/22 08:45:49;;;;;;;21.45;9.95;;;35.20;58.30;;;36.55;37.93;94958.28;5075089;28;20224;-61
2023/07/22 08:48:19;;;;;;;16.17;9.98;;;35.50;58.10;;;36.77;37.85;94947.44;5083316;28;20203;-61
2023/07/22 08:50:47;;;;;;;18.13;9.38;;;35.80;57.70;;;37.01;37.42;94943.66;5074618;28;20216;-63
2023/07/22 08:53:16;;;;;;;23.95;11.98;;;36.00;57.30;;;37.26;37.24;94947.00;5075535;28;20668;-59
2023/07/22 08:55:44;;;;;;;14.98;10.02;;;36.20;56.90;;;37.33;36.62;94943.88;5080508;28;20284;-60
2023/07/22 08:58:12;;;;;;;18.92;9.23;;;36.40;56.20;;;37.42;36.94;94942.03;5077916;28;20196;-60
2023/07/22 09:00:40;;;;;;;17.75;9.98;;;36.40;56.20;;;37.61;36.62;94941.84;5075880;28;20232;-65
2023/07/22 09:03:07;;;;;;;18.23;9.40;;;36.60;56.10;;;37.84;36.68;94940.75;5073640;28;20728;-60
2023/07/22 09:05:35;;;;;;;15.93;9.70;;;36.80;55.90;;;38.06;35.94;94938.34;5076084;28;20310;-61
2023/07/22 09:08:04;;;;;;;18.17;9.82;;;37.10;55.30;;;38.10;35.57;94944.84;5075590;28;20249;-60
2023/07/22 09:10:33;;;;;;;24.67;9.43;;;37.10;54.70;;;38.06;35.52;94944.63;5075135;28;20776;-61
2023/07/22 09:13:01;;;;;;;17.75;10.10;;;37.10;54.50;;;37.96;35.64;94939.41;5076392;28;20333;-60
2023/07/22 09:15:28;;;;;;;16.10;9.43;;;37.10;54.40;;;37.97;35.70;94936.34;5073175;28;20300;-60
2023/07/22 09:17:55;;;;;;;28.40;10.02;;;37.00;54.40;;;38.16;35.42;94943.56;5078281;28;20212;-61
2023/07/22 09:20:23;;;;;;;20.38;11.50;;;37.20;54.50;;;38.38;34.67;94934.50;5078141;28;20235;-63
2023/07/22 09:22:51;;;;;;;19.95;9.20;;;37.30;54.30;;;38.61;35.10;94934.44;5072757;28;20686;-63
2023/07/22 09:25:20;;;;;;;24.38;11.85;;;37.60;53.80;;;38.83;34.26;94928.09;5075343;28;20223;-61
2023/07/22 09:27:49;;;;;;;17.85;12.82;;;37.80;53.60;;;39.02;34.07;94925.06;5072593;28;20646;-60
2023/07/22 09:30:27;;;;;;;27.73;10.75;;;38.00;53.00;;;39.13;33.18;94925.59;5075084;28;20299;-63
2023/07/22 09:32:55;;;;;;;17.17;8.52;;;38.20;52.20;;;39.26;33.82;94930.16;5074016;28;20220;-62
2023/07/22 09:35:22;;;;;;;24.58;9.35;;;38.30;52.60;;;39.40;33.53;94925.31;5080925;28;20329;-64
2023/07/22 09:37:50;;;;;;;37.25;10.65;;;38.40;52.40;;;39.48;34.17;94918.19;5074129;28;20261;-63
2023/07/22 09:40:19;;;;;;;19.95;9.82;;;38.50;52.20;;;39.52;33.71;94912.84;5080818;28;20300;-61
2023/07/22 09:42:52;;;;;;;17.70;9.80;;;38.60;51.90;;;39.56;33.80;94911.09;5072658;28;20278;-62
2023/07/22 09:45:20;;;;;;;33.78;10.18;;;38.60;51.70;;;39.62;33.76;94899.59;5078479;28;20220;-61
2023/07/22 09:47:49;;;;;;;26.80;10.00;;;38.70;51.60;;;39.76;33.37;94909.63;5074825;28;20204;-61
2023/07/22 09:50:18;;;;;;;28.85;9.50;;;38.80;50.70;;;39.90;32.74;94892.91;5076885;28;20215;-61
2023/07/22 09:52:49;;;;;;;32.72;8.70;;;38.90;50.80;;;40.01;32.76;94901.69;5076608;28;20188;-60
2023/07/22 09:55:18;;;;;;;24.20;8.88;;;39.00;51.40;;;40.00;32.00;94892.59;5072781;28;20239;-62
2023/07/22 09:57:46;;;;;;;33.85;8.77;;;39.00;50.20;;;40.07;31.70;94897.63;5080366;28;20210;-60
2023/07/22 10:00:16;;;;;;;25.83;8.30;;;39.00;49.40;;;40.02;31.40;94895.00;5071744;28;20314;-61
2023/07/22 10:02:44;;;;;;;15.95;6.50;;;39.00;48.20;;;39.91;31.41;94898.09;5078275;28;20200;-62
2023/07/22 10:05:16;;;;;;;39.72;8.90;;;39.00;48.30;;;39.82;30.98;94891.78;5072263;28;20305;-63
2023/07/22 10:07:47;;;;;;;18.95;7.88;;;38.90;47.70;;;39.71;30.39;94890.50;5079325;28;20231;-64
2023/07/22 10:10:17;;;;;;;32.67;7.25;;;38.80;47.20;;;39.54;30.72;94892.16;5074270;28;20220;-61
2023/07/22 10:12:44;;;;;;;29.83;9.07;;;38.70;47.60;;;39.41;31.24;94896.66;5075236;28;20208;-60
2023/07/22 10:15:13;;;;;;;39.72;9.77;;;38.50;47.50;;;39.41;30.93;94888.41;5073745;28;20219;-62